sensor_id;sensor_type;location;lat;lon;timestamp;pressure;altitude;pressure_sealevel;temperature;humidity
11001;BME280;5553;48.506;8.870;2022-12-16T00:01:18;95212.66;;;-3.59;100.00
11001;BME280;5553;48.506;8.870;2022-12-16T00:03:49;95214.72;;;-3.53;100.00
11001;BME280;5553;48.506;8.870;2022-12-16T00:06:22;95206.59;;;-3.58;100.00
11001;BME280;5553;48.506;8.870;2022-12-16T00:08:51;95217.16;;;-3.61;100.00
11001;BME280;5553;48.506;8.870;2022-12-16T00:11:19;95212.28;;;-3.64;100.00
11001;BME280;5553;48.506;8.870;2022-12-16T00:13:48;95218.78;;;-3.70;100.00
11001;BME280;5553;48.506;8.870;2022-12-16T00:16:18;95217.16;;;-3.61;100.00
11001;BME280;5553;48.506;8.870;2022-12-16T00:18:47;95220.13;;;-3.56;100.00
11001;BME280;5553;48.506;8.870;2022-12-16T00:21:16;95212.25;;;-3.74;100.00
11001;BME280;5553;48.506;8.870;2022-12-16T00:23:48;95217.16;;;-3.81;100.00
11001;BME280;5553;48.506;8.870;2022-12-16T00:26:16;95216.88;;;-3.77;100.00
11001;BME280;5553;48.506;8.870;2022-12-16T00:28:44;95228.81;;;-3.76;100.00
11001;BME280;5553;48.506;8.870;2022-12-16T00:31:13;95220.94;;;-3.85;100.00
11001;BME280;5553;48.506;8.870;2022-12-16T00:33:41;95210.91;;;-3.88;100.00
11001;BME280;5553;48.506;8.870;2022-12-16T00:36:10;95220.41;;;-3.88;100.00
11001;BME280;5553;48.506;8.870;2022-12-16T00:38:38;95211.69;;;-3.97;100.00
11001;BME280;5553;48.506;8.870;2022-12-16T00:41:09;95210.06;;;-3.98;100.00
11001;BME280;5553;48.506;8.870;2022-12-16T00:43:37;95213.34;;;-3.96;100.00
11001;BME280;5553;48.506;8.870;2022-12-16T00:46:05;95208.72;;;-4.02;100.00
11001;BME280;5553;48.506;8.870;2022-12-16T00:48:34;95216.56;;;-4.03;100.00
11001;BME280;5553;48.506;8.870;2022-12-16T00:51:02;95207.19;;;-4.14;100.00
11001;BME280;5553;48.506;8.870;2022-12-16T00:53:31;95224.72;;;-4.08;100.00
11001;BME280;5553;48.506;8.870;2022-12-16T00:56:04;95222.91;;;-4.17;100.00
11001;BME280;5553;48.506;8.870;2022-12-16T00:58:35;95226.34;;;-4.17;100.00
11001;BME280;5553;48.506;8.870;2022-12-16T01:01:04;95229.06;;;-4.09;100.00
11001;BME280;5553;48.506;8.870;2022-12-16T01:03:33;95243.44;;;-4.06;100.00
11001;BME280;5553;48.506;8.870;2022-12-16T01:06:06;95234.47;;;-4.12;100.00
11001;BME280;5553;48.506;8.870;2022-12-16T01:08:35;95229.19;;;-4.10;100.00
11001;BME280;5553;48.506;8.870;2022-12-16T01:11:04;95232.81;;;-4.22;100.00
11001;BME280;5553;48.506;8.870;2022-12-16T01:13:35;95233.88;;;-4.25;100.00
11001;BME280;5553;48.506;8.870;2022-12-16T01:16:04;95241.50;;;-4.23;100.00
11001;BME280;5553;48.506;8.870;2022-12-16T01:18:32;95255.84;;;-4.31;100.00
11001;BME280;5553;48.506;8.870;2022-12-16T01:21:04;95256.69;;;-4.20;100.00
11001;BME280;5553;48.506;8.870;2022-12-16T01:23:33;95263.72;;;-4.22;100.00
11001;BME280;5553;48.506;8.870;2022-12-16T01:26:02;95265.88;;;-4.28;100.00
11001;BME280;5553;48.506;8.870;2022-12-16T01:28:30;95270.91;;;-4.26;100.00
11001;BME280;5553;48.506;8.870;2022-12-16T01:31:04;95276.16;;;-4.28;100.00
11001;BME280;5553;48.506;8.870;2022-12-16T01:33:32;95276.16;;;-4.28;100.00
11001;BME280;5553;48.506;8.870;2022-12-16T01:36:03;95278.06;;;-4.30;100.00
11001;BME280;5553;48.506;8.870;2022-12-16T01:38:32;95285.66;;;-4.28;100.00
11001;BME280;5553;48.506;8.870;2022-12-16T01:41:01;95285.22;;;-4.43;100.00
11001;BME280;5553;48.506;8.870;2022-12-16T01:43:33;95287.81;;;-4.33;100.00
11001;BME280;5553;48.506;8.870;2022-12-16T01:46:07;95284.84;;;-4.29;100.00
11001;BME280;5553;48.506;8.870;2022-12-16T01:48:40;95295.41;;;-4.32;100.00
11001;BME280;5553;48.506;8.870;2022-12-16T01:51:15;95293.22;;;-4.36;100.00
11001;BME280;5553;48.506;8.870;2022-12-16T01:53:46;95301.50;;;-4.33;100.00
11001;BME280;5553;48.506;8.870;2022-12-16T01:56:17;95295.56;;;-4.33;100.00
11001;BME280;5553;48.506;8.870;2022-12-16T01:58:46;95295.81;;;-4.36;100.00
11001;BME280;5553;48.506;8.870;2022-12-16T02:01:17;95289.75;;;-4.25;100.00
11001;BME280;5553;48.506;8.870;2022-12-16T02:03:47;95300.97;;;-4.36;100.00
11001;BME280;5553;48.506;8.870;2022-12-16T02:06:16;95299.50;;;-4.29;100.00
11001;BME280;5553;48.506;8.870;2022-12-16T02:08:44;95288.38;;;-4.30;100.00
11001;BME280;5553;48.506;8.870;2022-12-16T02:11:21;95293.22;;;-4.36;100.00
11001;BME280;5553;48.506;8.870;2022-12-16T02:14:08;95295.66;;;-4.35;100.00
11001;BME280;5553;48.506;8.870;2022-12-16T02:16:52;95298.69;;;-4.30;100.00
11001;BME280;5553;48.506;8.870;2022-12-16T02:19:40;95308.69;;;-4.36;100.00
11001;BME280;5553;48.506;8.870;2022-12-16T02:22:25;95314.25;;;-4.31;100.00
11001;BME280;5553;48.506;8.870;2022-12-16T02:25:14;95311.66;;;-4.31;100.00
11001;BME280;5553;48.506;8.870;2022-12-16T02:27:57;95317.66;;;-4.31;100.00
11001;BME280;5553;48.506;8.870;2022-12-16T02:33:43;95312.50;;;-4.31;100.00
11001;BME280;5553;48.506;8.870;2022-12-16T02:36:21;95320.91;;;-4.29;100.00
11001;BME280;5553;48.506;8.870;2022-12-16T02:38:56;95314.78;;;-4.37;100.00
11001;BME280;5553;48.506;8.870;2022-12-16T02:41:32;95327.13;;;-4.31;100.00
11001;BME280;5553;48.506;8.870;2022-12-16T02:44:05;95320.75;;;-4.37;100.00
11001;BME280;5553;48.506;8.870;2022-12-16T02:46:41;95318.28;;;-4.38;100.00
11001;BME280;5553;48.506;8.870;2022-12-16T02:52:07;95338.06;;;-4.39;100.00
11001;BME280;5553;48.506;8.870;2022-12-16T02:54:36;95326.00;;;-4.38;100.00
11001;BME280;5553;48.506;8.870;2022-12-16T02:57:15;95338.38;;;-4.32;100.00
11001;BME280;5553;48.506;8.870;2022-12-16T02:59:55;95341.09;;;-4.34;100.00
11001;BME280;5553;48.506;8.870;2022-12-16T03:02:35;95350.19;;;-4.30;100.00
11001;BME280;5553;48.506;8.870;2022-12-16T03:05:08;95351.81;;;-4.29;100.00
11001;BME280;5553;48.506;8.870;2022-12-16T03:07:39;95358.34;;;-4.24;100.00
11001;BME280;5553;48.506;8.870;2022-12-16T03:10:11;95353.28;;;-4.36;100.00
11001;BME280;5553;48.506;8.870;2022-12-16T03:12:44;95354.13;;;-4.25;100.00
11001;BME280;5553;48.506;8.870;2022-12-16T03:15:15;95344.34;;;-4.32;100.00
11001;BME280;5553;48.506;8.870;2022-12-16T03:17:49;95347.47;;;-4.28;100.00
11001;BME280;5553;48.506;8.870;2022-12-16T03:20:25;95352.31;;;-4.35;100.00
11001;BME280;5553;48.506;8.870;2022-12-16T03:22:57;95349.75;;;-4.35;100.00
11001;BME280;5553;48.506;8.870;2022-12-16T03:25:27;95347.16;;;-4.35;100.00
11001;BME280;5553;48.506;8.870;2022-12-16T03:27:59;95347.97;;;-4.44;100.00
11001;BME280;5553;48.506;8.870;2022-12-16T03:30:33;95353.03;;;-4.33;100.00
11001;BME280;5553;48.506;8.870;2022-12-16T03:33:09;95363.19;;;-4.31;100.00
11001;BME280;5553;48.506;8.870;2022-12-16T03:35:44;95359.69;;;-4.30;100.00
11001;BME280;5553;48.506;8.870;2022-12-16T03:38:12;95363.16;;;-4.41;100.00
11001;BME280;5553;48.506;8.870;2022-12-16T03:40:43;95375.09;;;-4.40;100.00
11001;BME280;5553;48.506;8.870;2022-12-16T03:43:12;95375.47;;;-4.44;100.00
11001;BME280;5553;48.506;8.870;2022-12-16T03:45:44;95376.28;;;-4.44;100.00
11001;BME280;5553;48.506;8.870;2022-12-16T03:48:15;95369.94;;;-4.40;100.00
11001;BME280;5553;48.506;8.870;2022-12-16T03:50:44;95377.28;;;-4.35;100.00
11001;BME280;5553;48.506;8.870;2022-12-16T03:53:13;95387.72;;;-4.37;100.00
11001;BME280;5553;48.506;8.870;2022-12-16T03:55:41;95374.59;;;-4.34;100.00
11001;BME280;5553;48.506;8.870;2022-12-16T03:58:09;95373.88;;;-4.36;100.00
11001;BME280;5553;48.506;8.870;2022-12-16T04:00:38;95380.78;;;-4.36;100.00
11001;BME280;5553;48.506;8.870;2022-12-16T04:03:06;95377.28;;;-4.35;100.00
11001;BME280;5553;48.506;8.870;2022-12-16T04:05:37;95389.72;;;-4.40;100.00
11001;BME280;5553;48.506;8.870;2022-12-16T04:08:05;95380.78;;;-4.36;100.00
11001;BME280;5553;48.506;8.870;2022-12-16T04:10:34;95385.88;;;-4.46;100.00
11001;BME280;5553;48.506;8.870;2022-12-16T04:13:14;95387.50;;;-4.45;100.00
11001;BME280;5553;48.506;8.870;2022-12-16T04:15:55;95389.16;;;-4.44;100.00
11001;BME280;5553;48.506;8.870;2022-12-16T04:18:47;95392.66;;;-4.45;100.00
11001;BME280;5553;48.506;8.870;2022-12-16T07:09:33;95611.56;;;-4.45;100.00
11001;BME280;5553;48.506;8.870;2022-12-16T07:12:14;95618.34;;;-4.44;100.00
11001;BME280;5553;48.506;8.870;2022-12-16T07:14:55;95624.66;;;-4.48;100.00
11001;BME280;5553;48.506;8.870;2022-12-16T07:17:37;95630.72;;;-4.38;100.00
11001;BME280;5553;48.506;8.870;2022-12-16T07:20:18;95634.00;;;-4.36;100.00
11001;BME280;5553;48.506;8.870;2022-12-16T07:22:59;95643.03;;;-4.30;100.00
11001;BME280;5553;48.506;8.870;2022-12-16T07:25:42;95644.41;;;-4.26;100.00
11001;BME280;5553;48.506;8.870;2022-12-16T07:28:23;95637.06;;;-4.31;100.00
11001;BME280;5553;48.506;8.870;2022-12-16T07:31:04;95645.78;;;-4.22;100.00
11001;BME280;5553;48.506;8.870;2022-12-16T07:33:45;95651.75;;;-4.21;100.00
11001;BME280;5553;48.506;8.870;2022-12-16T07:36:25;95648.28;;;-4.20;100.00
11001;BME280;5553;48.506;8.870;2022-12-16T07:39:06;95643.31;;;-4.12;100.00
11001;BME280;5553;48.506;8.870;2022-12-16T07:41:50;95654.31;;;-4.10;100.00
11001;BME280;5553;48.506;8.870;2022-12-16T07:44:30;95659.81;;;-4.15;100.00
11001;BME280;5553;48.506;8.870;2022-12-16T07:47:11;95657.66;;;-3.98;100.00
11001;BME280;5553;48.506;8.870;2022-12-16T07:49:52;95662.72;;;-4.08;100.00
11001;BME280;5553;48.506;8.870;2022-12-16T07:52:33;95667.22;;;-4.10;100.00
11001;BME280;5553;48.506;8.870;2022-12-16T07:55:13;95668.13;;;-4.11;100.00
11001;BME280;5553;48.506;8.870;2022-12-16T07:57:57;95671.09;;;-4.16;100.00
11001;BME280;5553;48.506;8.870;2022-12-16T08:00:38;95670.09;;;-4.03;100.00
11001;BME280;5553;48.506;8.870;2022-12-16T08:03:19;95676.19;;;-4.05;100.00
11001;BME280;5553;48.506;8.870;2022-12-16T08:05:59;95676.34;;;-4.06;100.00
11001;BME280;5553;48.506;8.870;2022-12-16T08:08:40;95680.34;;;-3.81;100.00
11001;BME280;5553;48.506;8.870;2022-12-16T08:11:21;95684.97;;;-3.96;100.00
11001;BME280;5553;48.506;8.870;2022-12-16T08:14:04;95694.13;;;-4.03;100.00
11001;BME280;5553;48.506;8.870;2022-12-16T08:16:45;95681.72;;;-4.09;100.00
11001;BME280;5553;48.506;8.870;2022-12-16T08:19:26;95697.53;;;-4.02;100.00
11001;BME280;5553;48.506;8.870;2022-12-16T08:22:06;95700.53;;;-3.97;100.00
11001;BME280;5553;48.506;8.870;2022-12-16T08:24:48;95702.63;;;-3.91;100.00
11001;BME280;5553;48.506;8.870;2022-12-16T08:27:28;95707.66;;;-3.90;100.00
11001;BME280;5553;48.506;8.870;2022-12-16T08:30:12;95708.34;;;-3.88;100.00
11001;BME280;5553;48.506;8.870;2022-12-16T08:32:53;95716.09;;;-3.88;100.00
11001;BME280;5553;48.506;8.870;2022-12-16T08:35:33;95712.13;;;-3.92;100.00
11001;BME280;5553;48.506;8.870;2022-12-16T08:38:14;95726.31;;;-3.86;100.00
11001;BME280;5553;48.506;8.870;2022-12-16T08:40:55;95727.34;;;-3.89;100.00
11001;BME280;5553;48.506;8.870;2022-12-16T08:43:36;95724.19;;;-3.92;100.00
11001;BME280;5553;48.506;8.870;2022-12-16T08:46:19;95722.19;;;-3.89;100.00
11001;BME280;5553;48.506;8.870;2022-12-16T08:49:00;95730.16;;;-3.92;100.00
11001;BME280;5553;48.506;8.870;2022-12-16T08:51:41;95728.28;;;-3.90;100.00
11001;BME280;5553;48.506;8.870;2022-12-16T08:54:22;95742.44;;;-3.84;100.00
11001;BME280;5553;48.506;8.870;2022-12-16T08:57:02;95739.06;;;-3.85;100.00
11001;BME280;5553;48.506;8.870;2022-12-16T08:59:43;95742.44;;;-3.84;100.00
11001;BME280;5553;48.506;8.870;2022-12-16T09:02:27;95748.75;;;-3.77;100.00
11001;BME280;5553;48.506;8.870;2022-12-16T09:05:08;95749.09;;;-3.70;100.00
11001;BME280;5553;48.506;8.870;2022-12-16T09:07:50;95756.56;;;-3.67;100.00
11001;BME280;5553;48.506;8.870;2022-12-16T09:10:31;95754.72;;;-3.65;100.00
11001;BME280;5553;48.506;8.870;2022-12-16T09:13:13;95763.34;;;-3.55;100.00
11001;BME280;5553;48.506;8.870;2022-12-16T09:15:54;95762.47;;;-3.44;100.00
11001;BME280;5553;48.506;8.870;2022-12-16T09:18:38;95754.59;;;-3.43;100.00
11001;BME280;5553;48.506;8.870;2022-12-16T09:21:19;95755.31;;;-3.41;100.00
11001;BME280;5553;48.506;8.870;2022-12-16T09:23:59;95747.09;;;-3.46;100.00
11001;BME280;5553;48.506;8.870;2022-12-16T09:26:40;95753.69;;;-3.42;100.00
11001;BME280;5553;48.506;8.870;2022-12-16T09:29:21;95754.25;;;-3.38;100.00
11001;BME280;5553;48.506;8.870;2022-12-16T09:32:02;95752.59;;;-3.39;100.00
11001;BME280;5553;48.506;8.870;2022-12-16T09:34:45;95760.81;;;-3.45;100.00
11001;BME280;5553;48.506;8.870;2022-12-16T09:37:26;95756.94;;;-3.40;100.00
11001;BME280;5553;48.506;8.870;2022-12-16T09:40:09;95760.91;;;-3.36;100.00
11001;BME280;5553;48.506;8.870;2022-12-16T09:42:56;95763.00;;;-3.29;100.00
11001;BME280;5553;48.506;8.870;2022-12-16T09:45:46;95767.78;;;-3.25;100.00
11001;BME280;5553;48.506;8.870;2022-12-16T09:48:38;95762.00;;;-3.17;100.00
11001;BME280;5553;48.506;8.870;2022-12-16T09:51:27;95772.75;;;-2.91;100.00
11001;BME280;5553;48.506;8.870;2022-12-16T09:54:11;95768.41;;;-2.91;100.00
11001;BME280;5553;48.506;8.870;2022-12-16T09:56:52;95772.44;;;-2.98;100.00
11001;BME280;5553;48.506;8.870;2022-12-16T09:59:37;95774.84;;;-3.06;100.00
11001;BME280;5553;48.506;8.870;2022-12-16T10:02:21;95766.97;;;-3.04;100.00
11001;BME280;5553;48.506;8.870;2022-12-16T10:05:05;95762.25;;;-2.99;100.00
11001;BME280;5553;48.506;8.870;2022-12-16T10:07:57;95774.78;;;-2.95;100.00
11001;BME280;5553;48.506;8.870;2022-12-16T10:10:47;95772.06;;;-2.72;100.00
11001;BME280;5553;48.506;8.870;2022-12-16T10:13:34;95778.28;;;-2.54;100.00
11001;BME280;5553;48.506;8.870;2022-12-16T10:16:22;95769.09;;;-2.68;100.00
11001;BME280;5553;48.506;8.870;2022-12-16T10:19:14;95767.59;;;-2.40;100.00
11001;BME280;5553;48.506;8.870;2022-12-16T10:22:02;95763.59;;;-2.53;100.00
11001;BME280;5553;48.506;8.870;2022-12-16T10:24:52;95766.56;;;-2.58;100.00
11001;BME280;5553;48.506;8.870;2022-12-16T10:27:42;95764.53;;;-2.54;100.00
11001;BME280;5553;48.506;8.870;2022-12-16T10:30:23;95760.03;;;-2.62;100.00
11001;BME280;5553;48.506;8.870;2022-12-16T10:33:08;95758.47;;;-2.74;100.00
11001;BME280;5553;48.506;8.870;2022-12-16T10:35:52;95762.41;;;-2.70;100.00
11001;BME280;5553;48.506;8.870;2022-12-16T10:38:36;95757.66;;;-2.75;100.00
11001;BME280;5553;48.506;8.870;2022-12-16T10:41:22;95771.88;;;-2.80;100.00
11001;BME280;5553;48.506;8.870;2022-12-16T10:44:14;95768.38;;;-2.79;100.00
11001;BME280;5553;48.506;8.870;2022-12-16T10:46:56;95757.03;;;-2.88;100.00
11001;BME280;5553;48.506;8.870;2022-12-16T10:49:43;95764.75;;;-2.67;100.00
11001;BME280;5553;48.506;8.870;2022-12-16T10:52:30;95754.78;;;-2.51;100.00
11001;BME280;5553;48.506;8.870;2022-12-16T10:55:16;95752.38;;;-2.43;100.00
11001;BME280;5553;48.506;8.870;2022-12-16T10:58:15;95755.97;;;-2.55;100.00
11001;BME280;5553;48.506;8.870;2022-12-16T11:00:59;95756.22;;;-2.27;100.00
11001;BME280;5553;48.506;8.870;2022-12-16T11:03:40;95757.69;;;-2.34;100.00
11001;BME280;5553;48.506;8.870;2022-12-16T11:06:24;95757.84;;;-2.26;100.00
11001;BME280;5553;48.506;8.870;2022-12-16T11:09:17;95762.16;;;-2.36;100.00
11001;BME280;5553;48.506;8.870;2022-12-16T11:12:21;95766.66;;;-2.08;100.00
11001;BME280;5553;48.506;8.870;2022-12-16T11:15:17;95766.94;;;-1.92;100.00
11001;BME280;5553;48.506;8.870;2022-12-16T11:18:03;95755.94;;;-1.84;100.00
11001;BME280;5553;48.506;8.870;2022-12-16T11:20:45;95754.31;;;-1.95;100.00
11001;BME280;5553;48.506;8.870;2022-12-16T11:23:25;95750.25;;;-1.78;100.00
11001;BME280;5553;48.506;8.870;2022-12-16T11:26:11;95750.75;;;-1.94;100.00
11001;BME280;5553;48.506;8.870;2022-12-16T11:29:09;95740.59;;;-1.66;100.00
11001;BME280;5553;48.506;8.870;2022-12-16T11:31:56;95741.91;;;-1.81;100.00
11001;BME280;5553;48.506;8.870;2022-12-16T11:34:38;95742.03;;;-1.93;100.00
11001;BME280;5553;48.506;8.870;2022-12-16T11:37:20;95750.25;;;-1.68;100.00
11001;BME280;5553;48.506;8.870;2022-12-16T11:40:02;95756.13;;;-1.66;100.00
11001;BME280;5553;48.506;8.870;2022-12-16T11:42:44;95754.47;;;-1.67;100.00
11001;BME280;5553;48.506;8.870;2022-12-16T11:45:25;95752.72;;;-1.57;100.00
11001;BME280;5553;48.506;8.870;2022-12-16T11:48:17;95757.75;;;-1.65;100.00
11001;BME280;5553;48.506;8.870;2022-12-16T11:51:10;95767.00;;;-1.72;100.00
11001;BME280;5553;48.506;8.870;2022-12-16T11:53:58;95766.59;;;-1.58;100.00
11001;BME280;5553;48.506;8.870;2022-12-16T11:56:42;95749.56;;;-1.70;100.00
11001;BME280;5553;48.506;8.870;2022-12-16T11:59:35;95752.31;;;-1.62;100.00
11001;BME280;5553;48.506;8.870;2022-12-16T12:02:21;95755.59;;;-1.50;100.00
11001;BME280;5553;48.506;8.870;2022-12-16T12:05:10;95770.56;;;-1.15;100.00
11001;BME280;5553;48.506;8.870;2022-12-16T12:08:13;95769.06;;;-1.17;100.00
11001;BME280;5553;48.506;8.870;2022-12-16T12:11:14;95768.25;;;-0.99;100.00
11001;BME280;5553;48.506;8.870;2022-12-16T12:14:05;95761.56;;;-1.30;100.00
11001;BME280;5553;48.506;8.870;2022-12-16T12:16:59;95758.72;;;-1.08;100.00
11001;BME280;5553;48.506;8.870;2022-12-16T12:19:50;95762.91;;;-0.97;100.00
11001;BME280;5553;48.506;8.870;2022-12-16T12:22:38;95748.50;;;-1.48;100.00
11001;BME280;5553;48.506;8.870;2022-12-16T12:25:23;95776.41;;;-0.93;100.00
11001;BME280;5553;48.506;8.870;2022-12-16T12:28:13;95782.13;;;-0.80;100.00
11001;BME280;5553;48.506;8.870;2022-12-16T12:31:01;95781.31;;;-0.90;100.00
11001;BME280;5553;48.506;8.870;2022-12-16T12:33:55;95783.63;;;-0.78;100.00
11001;BME280;5553;48.506;8.870;2022-12-16T12:36:45;95772.03;;;-1.03;100.00
11001;BME280;5553;48.506;8.870;2022-12-16T12:39:34;95769.22;;;-1.09;100.00
11001;BME280;5553;48.506;8.870;2022-12-16T12:42:26;95776.84;;;-1.08;100.00
11001;BME280;5553;48.506;8.870;2022-12-16T12:45:37;95770.03;;;-1.18;100.00
11001;BME280;5553;48.506;8.870;2022-12-16T12:48:25;95784.59;;;-0.98;100.00
11001;BME280;5553;48.506;8.870;2022-12-16T12:51:15;95791.13;;;-1.23;100.00
11001;BME280;5553;48.506;8.870;2022-12-16T12:54:08;95800.22;;;-1.58;100.00
11001;BME280;5553;48.506;8.870;2022-12-16T12:56:58;95805.38;;;-1.68;100.00
11001;BME280;5553;48.506;8.870;2022-12-16T12:59:46;95801.22;;;-1.39;100.00
11001;BME280;5553;48.506;8.870;2022-12-16T13:02:40;95806.13;;;-1.36;100.00
11001;BME280;5553;48.506;8.870;2022-12-16T13:05:24;95819.63;;;-1.13;100.00
11001;BME280;5553;48.506;8.870;2022-12-16T13:08:30;95822.22;;;-1.13;100.00
11001;BME280;5553;48.506;8.870;2022-12-16T13:11:12;95818.25;;;-1.08;100.00
11001;BME280;5553;48.506;8.870;2022-12-16T13:13:55;95816.47;;;-1.17;100.00
11001;BME280;5553;48.506;8.870;2022-12-16T13:17:03;95813.47;;;-1.41;100.00
11001;BME280;5553;48.506;8.870;2022-12-16T13:19:52;95797.69;;;-1.29;100.00
11001;BME280;5553;48.506;8.870;2022-12-16T13:22:34;95808.72;;;-1.17;100.00
11001;BME280;5553;48.506;8.870;2022-12-16T13:25:35;95802.63;;;-1.85;100.00
11001;BME280;5553;48.506;8.870;2022-12-16T13:28:25;95810.28;;;-1.74;100.00
11001;BME280;5553;48.506;8.870;2022-12-16T13:31:09;95811.69;;;-1.41;100.00
11001;BME280;5553;48.506;8.870;2022-12-16T13:33:50;95811.34;;;-1.86;100.00
11001;BME280;5553;48.506;8.870;2022-12-16T13:36:33;95821.50;;;-1.45;100.00
11001;BME280;5553;48.506;8.870;2022-12-16T13:39:21;95835.50;;;-1.47;100.00
11001;BME280;5553;48.506;8.870;2022-12-16T13:42:03;95839.16;;;-1.69;100.00
11001;BME280;5553;48.506;8.870;2022-12-16T13:45:07;95845.44;;;-1.62;100.00
11001;BME280;5553;48.506;8.870;2022-12-16T13:48:25;95859.09;;;-1.50;100.00
11001;BME280;5553;48.506;8.870;2022-12-16T13:51:06;95863.22;;;-1.78;100.00
11001;BME280;5553;48.506;8.870;2022-12-16T13:53:49;95858.91;;;-1.99;100.00
11001;BME280;5553;48.506;8.870;2022-12-16T13:56:33;95879.84;;;-1.81;100.00
11001;BME280;5553;48.506;8.870;2022-12-16T13:59:17;95880.94;;;-2.04;100.00
11001;BME280;5553;48.506;8.870;2022-12-16T14:02:02;95888.69;;;-1.74;100.00
11001;BME280;5553;48.506;8.870;2022-12-16T14:04:55;95898.22;;;-1.74;100.00
11001;BME280;5553;48.506;8.870;2022-12-16T14:07:38;95905.28;;;-1.76;100.00
11001;BME280;5553;48.506;8.870;2022-12-16T14:10:23;95910.81;;;-1.91;100.00
11001;BME280;5553;48.506;8.870;2022-12-16T14:13:07;95926.63;;;-1.84;100.00
11001;BME280;5553;48.506;8.870;2022-12-16T14:15:56;95936.69;;;-1.91;100.00
11001;BME280;5553;48.506;8.870;2022-12-16T14:18:45;95934.00;;;-2.31;100.00
11001;BME280;5553;48.506;8.870;2022-12-16T14:21:38;95942.47;;;-2.40;100.00
11001;BME280;5553;48.506;8.870;2022-12-16T14:24:25;95947.72;;;-2.30;100.00
11001;BME280;5553;48.506;8.870;2022-12-16T14:27:12;95953.38;;;-2.36;100.00
11001;BME280;5553;48.506;8.870;2022-12-16T14:29:54;95956.75;;;-2.46;100.00
11001;BME280;5553;48.506;8.870;2022-12-16T14:32:35;95961.03;;;-2.67;100.00
11001;BME280;5553;48.506;8.870;2022-12-16T14:35:18;95967.88;;;-2.66;100.00
11001;BME280;5553;48.506;8.870;2022-12-16T14:38:20;95975.66;;;-2.89;100.00
11001;BME280;5553;48.506;8.870;2022-12-16T14:41:01;95982.88;;;-3.03;100.00
11001;BME280;5553;48.506;8.870;2022-12-16T14:43:42;95986.75;;;-3.09;100.00
11001;BME280;5553;48.506;8.870;2022-12-16T14:46:27;95986.25;;;-3.03;100.00
11001;BME280;5553;48.506;8.870;2022-12-16T14:49:18;95993.78;;;-3.00;100.00
11001;BME280;5553;48.506;8.870;2022-12-16T14:52:00;95982.97;;;-3.05;100.00
11001;BME280;5553;48.506;8.870;2022-12-16T14:54:45;95994.03;;;-3.14;100.00
11001;BME280;5553;48.506;8.870;2022-12-16T14:57:27;95998.00;;;-2.99;100.00
11001;BME280;5553;48.506;8.870;2022-12-16T15:00:14;96000.81;;;-3.13;100.00
11001;BME280;5553;48.506;8.870;2022-12-16T15:02:57;96003.78;;;-3.18;100.00
11001;BME280;5553;48.506;8.870;2022-12-16T15:05:40;96001.19;;;-3.18;100.00
11001;BME280;5553;48.506;8.870;2022-12-16T15:08:23;95999.56;;;-3.41;100.00
11001;BME280;5553;48.506;8.870;2022-12-16T15:11:11;96001.91;;;-3.61;100.00
11001;BME280;5553;48.506;8.870;2022-12-16T15:13:55;95998.88;;;-3.66;100.00
11001;BME280;5553;48.506;8.870;2022-12-16T15:16:37;96003.06;;;-3.76;100.00
11001;BME280;5553;48.506;8.870;2022-12-16T15:19:20;96010.22;;;-3.57;100.00
11001;BME280;5553;48.506;8.870;2022-12-16T15:22:02;96005.06;;;-3.68;100.00
11001;BME280;5553;48.506;8.870;2022-12-16T15:24:43;96015.69;;;-3.84;100.00
11001;BME280;5553;48.506;8.870;2022-12-16T15:27:33;96023.09;;;-3.79;100.00
11001;BME280;5553;48.506;8.870;2022-12-16T15:30:39;96033.88;;;-3.86;100.00
11001;BME280;5553;48.506;8.870;2022-12-16T15:33:21;96043.53;;;-4.12;100.00
11001;BME280;5553;48.506;8.870;2022-12-16T15:36:03;96044.13;;;-3.97;100.00
11001;BME280;5553;48.506;8.870;2022-12-16T15:38:45;96056.56;;;-4.02;100.00
11001;BME280;5553;48.506;8.870;2022-12-16T15:41:30;96057.72;;;-4.06;100.00
11001;BME280;5553;48.506;8.870;2022-12-16T15:44:22;96055.47;;;-4.11;100.00
11001;BME280;5553;48.506;8.870;2022-12-16T15:47:04;96065.91;;;-4.12;100.00
11001;BME280;5553;48.506;8.870;2022-12-16T15:49:47;96075.22;;;-4.22;100.00
11001;BME280;5553;48.506;8.870;2022-12-16T15:52:34;96075.97;;;-4.20;100.00
11001;BME280;5553;48.506;8.870;2022-12-16T15:55:29;96075.88;;;-4.32;100.00
11001;BME280;5553;48.506;8.870;2022-12-16T15:58:13;96086.91;;;-4.30;100.00
11001;BME280;5553;48.506;8.870;2022-12-16T16:00:58;96096.56;;;-4.20;100.00
11001;BME280;5553;48.506;8.870;2022-12-16T16:03:48;96099.28;;;-4.35;100.00
11001;BME280;5553;48.506;8.870;2022-12-16T16:06:29;96110.66;;;-4.37;100.00
11001;BME280;5553;48.506;8.870;2022-12-16T16:09:11;96119.13;;;-4.24;100.00
11001;BME280;5553;48.506;8.870;2022-12-16T16:11:58;96127.47;;;-4.20;100.00
11001;BME280;5553;48.506;8.870;2022-12-16T16:14:38;96126.03;;;-4.24;100.00
11001;BME280;5553;48.506;8.870;2022-12-16T16:17:24;96129.13;;;-4.19;100.00
11001;BME280;5553;48.506;8.870;2022-12-16T16:20:08;96136.84;;;-4.19;100.00
11001;BME280;5553;48.506;8.870;2022-12-16T16:22:52;96141.00;;;-4.30;100.00
11001;BME280;5553;48.506;8.870;2022-12-16T16:25:33;96136.94;;;-4.21;100.00
11001;BME280;5553;48.506;8.870;2022-12-16T16:28:14;96141.78;;;-4.16;100.00
11001;BME280;5553;48.506;8.870;2022-12-16T16:30:55;96148.31;;;-4.23;100.00
11001;BME280;5553;48.506;8.870;2022-12-16T16:33:38;96156.13;;;-4.25;100.00
11001;BME280;5553;48.506;8.870;2022-12-16T16:36:19;96165.03;;;-4.29;100.00
11001;BME280;5553;48.506;8.870;2022-12-16T16:38:59;96167.06;;;-4.34;100.00
11001;BME280;5553;48.506;8.870;2022-12-16T16:41:40;96181.81;;;-4.23;100.00
11001;BME280;5553;48.506;8.870;2022-12-16T16:44:21;96174.50;;;-4.30;100.00
11001;BME280;5553;48.506;8.870;2022-12-16T16:47:02;96184.50;;;-4.38;100.00
11001;BME280;5553;48.506;8.870;2022-12-16T16:49:46;96185.91;;;-4.21;100.00
11001;BME280;5553;48.506;8.870;2022-12-16T16:52:27;96191.31;;;-4.37;100.00
11001;BME280;5553;48.506;8.870;2022-12-16T16:55:13;96184.59;;;-4.26;100.00
11001;BME280;5553;48.506;8.870;2022-12-16T16:57:54;96187.69;;;-4.34;100.00
11001;BME280;5553;48.506;8.870;2022-12-16T17:00:35;96184.19;;;-4.33;100.00
11001;BME280;5553;48.506;8.870;2022-12-16T17:03:16;96188.75;;;-4.37;100.00
11001;BME280;5553;48.506;8.870;2022-12-16T17:06:00;96203.59;;;-4.40;100.00
11001;BME280;5553;48.506;8.870;2022-12-16T17:08:40;96211.22;;;-4.52;100.00